Time;durP1;ratioP1;P1;durP2;ratioP2;P2;SDS_P1;SDS_P2;PMS_P1;PMS_P2;Temp;Humidity;BMP_temperature;BMP_pressure;BME280_temperature;BME280_humidity;BME280_pressure;Samples;Min_cycle;Max_cycle;Signal;HPM_P1;HPM_P2
2022/01/18 00:00:29;;;;;;;7.22;2.47;;;25.10;54.20;;;;;;5068695;28;20214;-42
2022/01/18 00:03:01;;;;;;;10.75;2.72;;;25.10;54.20;;;;;;5069459;28;20199;-42
2022/01/18 00:05:32;;;;;;;10.73;2.40;;;25.10;54.20;;;;;;5068335;28;20199;-42
2022/01/18 00:08:02;;;;;;;4.93;1.95;;;25.10;54.20;;;;;;5069475;28;20355;-42
2022/01/18 00:10:33;;;;;;;9.65;2.67;;;25.10;54.10;;;;;;5065974;28;20722;-43
2022/01/18 00:13:25;;;;;;;8.02;2.47;;;25.10;54.10;;;;;;5068176;28;20282;-41
2022/01/18 00:16:10;;;;;;;8.77;3.05;;;25.20;54.10;;;;;;5068883;28;20274;-41
2022/01/18 00:18:48;;;;;;;7.10;2.22;;;25.20;53.90;;;;;;5067878;28;20218;-41
2022/01/18 00:21:26;;;;;;;9.80;2.60;;;25.20;53.80;;;;;;5067534;28;20230;-40
2022/01/18 00:23:58;;;;;;;8.07;2.47;;;25.20;53.70;;;;;;5067514;28;20789;-42
2022/01/18 00:26:32;;;;;;;7.20;2.10;;;25.20;53.70;;;;;;5068467;28;20218;-40
2022/01/18 00:29:08;;;;;;;10.60;3.00;;;25.30;53.60;;;;;;5066171;28;20825;-46
2022/01/18 00:32:00;;;;;;;11.27;2.85;;;25.30;53.60;;;;;;5068169;28;20206;-47
2022/01/18 00:34:35;;;;;;;6.43;2.40;;;25.30;53.50;;;;;;5067665;28;20293;-43
2022/01/18 00:39:53;;;;;;;5.57;2.20;;;25.30;53.20;;;;;;5067049;28;20217;-40
2022/01/18 00:42:23;;;;;;;8.63;2.80;;;25.30;53.20;;;;;;5067498;28;20385;-43
2022/01/18 00:44:54;;;;;;;7.47;2.47;;;25.30;53.20;;;;;;5068656;28;20298;-41
2022/01/18 00:47:24;;;;;;;8.68;2.10;;;25.30;53.20;;;;;;5067864;28;20282;-41
2022/01/18 00:50:01;;;;;;;5.75;1.80;;;25.40;53.30;;;;;;5068178;28;20234;-49
2022/01/18 00:52:35;;;;;;;9.07;2.28;;;25.40;53.30;;;;;;5067901;28;20199;-41
2022/01/18 00:55:05;;;;;;;7.53;2.45;;;25.40;53.20;;;;;;5067026;28;20207;-43
2022/01/18 00:57:36;;;;;;;8.82;2.58;;;25.40;53.10;;;;;;5066900;28;20329;-42
2022/01/18 01:00:08;;;;;;;5.35;2.03;;;25.40;53.10;;;;;;5068377;28;20281;-40
2022/01/18 01:02:38;;;;;;;7.40;2.40;;;25.40;53.00;;;;;;5067357;28;20734;-41
2022/01/18 01:05:12;;;;;;;6.38;2.35;;;25.50;53.10;;;;;;5067872;28;20302;-40
2022/01/18 01:07:42;;;;;;;4.93;1.95;;;25.50;53.00;;;;;;5068214;28;20286;-41
2022/01/18 01:10:13;;;;;;;7.32;2.05;;;25.50;52.90;;;;;;5067013;28;20279;-41
2022/01/18 01:12:43;;;;;;;6.72;2.20;;;25.50;52.70;;;;;;5067588;28;20273;-41
2022/01/18 01:15:15;;;;;;;9.55;2.15;;;25.50;52.60;;;;;;5065369;28;20761;-41
2022/01/18 01:17:51;;;;;;;5.70;1.95;;;25.50;52.40;;;;;;5067958;28;20222;-41
2022/01/18 01:34:39;;;;;;;6.45;1.88;;;25.60;52.40;;;;;;5067333;28;20238;-41
2022/01/18 01:41:45;;;;;;;8.38;2.30;;;25.60;52.30;;;;;;5066883;28;20211;-42
2022/01/18 01:43:12;;;;;;;7.32;2.40;;;25.60;52.40;;;;;;5062593;28;20202;-40
2022/01/18 01:45:43;;;;;;;7.13;2.47;;;25.60;52.20;;;;;;5057449;28;20740;-41
2022/01/18 01:48:14;;;;;;;5.47;2.33;;;25.60;52.20;;;;;;5067109;28;20625;-43
2022/01/18 01:50:48;;;;;;;10.43;2.75;;;25.60;52.30;;;;;;5066943;28;20273;-40
2022/01/18 01:53:22;;;;;;;8.70;2.47;;;25.70;52.30;;;;;;5064867;28;20933;-40
2022/01/18 01:55:54;;;;;;;8.70;2.83;;;25.70;52.30;;;;;;5066348;28;20230;-41
2022/01/18 01:58:25;;;;;;;7.40;2.53;;;25.70;52.30;;;;;;5065156;28;20250;-44
2022/01/18 02:01:00;;;;;;;9.60;2.60;;;25.70;52.30;;;;;;5066291;28;20278;-47
2022/01/18 02:03:31;;;;;;;9.57;2.22;;;25.70;52.10;;;;;;5066028;28;20245;-43
2022/01/18 02:06:02;;;;;;;6.95;2.25;;;25.70;52.10;;;;;;5066888;28;20281;-43
2022/01/18 02:08:34;;;;;;;7.85;2.38;;;25.70;52.10;;;;;;5065336;28;20773;-41
2022/01/18 02:11:05;;;;;;;10.20;2.50;;;25.70;52.00;;;;;;5061964;28;20282;-40
2022/01/18 02:13:35;;;;;;;11.70;2.85;;;25.70;52.00;;;;;;5062074;28;20218;-41
2022/01/18 02:21:45;;;;;;;7.65;2.45;;;25.70;51.90;;;;;;5064956;28;20206;-43
2022/01/18 02:21:57;;;;;;;5.78;2.17;;;25.80;52.00;;;;;;5066307;28;20261;-44
2022/01/18 02:24:27;;;;;;;9.05;2.28;;;25.80;52.00;;;;;;5066359;28;20329;-44
2022/01/18 02:26:58;;;;;;;10.10;2.70;;;25.80;52.10;;;;;;5061586;28;20616;-40
2022/01/18 02:29:29;;;;;;;6.88;2.30;;;25.80;52.10;;;;;;5066299;28;20290;-41
2022/01/18 02:32:00;;;;;;;6.13;2.58;;;25.80;52.10;;;;;;5066477;28;20191;-42
2022/01/18 02:34:30;;;;;;;5.75;2.42;;;25.80;52.10;;;;;;5067261;28;20210;-43
2022/01/18 02:37:04;;;;;;;9.25;2.47;;;25.80;52.00;;;;;;5066265;28;20202;-40
2022/01/18 02:39:34;;;;;;;12.82;2.75;;;25.80;52.10;;;;;;5065308;28;20222;-40
2022/01/18 02:42:06;;;;;;;10.02;2.75;;;25.80;52.00;;;;;;5066207;28;20198;-41
2022/01/18 02:44:38;;;;;;;7.50;2.55;;;25.90;52.00;;;;;;5066621;28;20250;-42
2022/01/18 02:47:09;;;;;;;10.38;2.83;;;25.90;51.90;;;;;;5066490;28;20226;-43
2022/01/18 02:49:46;;;;;;;13.20;3.25;;;25.90;51.80;;;;;;5064277;28;20207;-43
2022/01/18 02:52:20;;;;;;;7.80;3.15;;;25.90;51.70;;;;;;5066484;28;20239;-41
2022/01/18 02:54:50;;;;;;;13.10;3.03;;;25.90;51.60;;;;;;5066706;28;20215;-47
2022/01/18 02:57:26;;;;;;;12.00;2.95;;;25.90;51.50;;;;;;5070478;28;20555;-41
2022/01/18 03:00:14;;;;;;;9.65;2.60;;;25.90;51.60;;;;;;5069959;28;20203;-41
2022/01/18 03:05:31;;;;;;;11.38;3.00;;;25.90;51.60;;;;;;5070274;28;20222;-47
2022/01/18 03:08:03;;;;;;;21.27;4.28;;;25.90;51.60;;;;;;5070180;28;20848;-44
2022/01/18 03:10:34;;;;;;;20.02;4.45;;;25.90;51.60;;;;;;5067932;28;20281;-42
2022/01/18 03:13:05;;;;;;;19.63;5.30;;;25.90;51.60;;;;;;5068671;28;20722;-44
2022/01/18 03:15:38;;;;;;;17.02;3.83;;;25.90;51.60;;;;;;5069188;28;20199;-41
2022/01/18 03:18:10;;;;;;;15.50;3.38;;;25.90;51.60;;;;;;5070050;28;20306;-43
2022/01/18 03:20:41;;;;;;;15.30;3.33;;;25.90;51.60;;;;;;5068824;28;20373;-42
2022/01/18 03:23:17;;;;;;;11.90;3.40;;;25.90;51.70;;;;;;5069709;28;20276;-43
2022/01/18 03:25:57;;;;;;;12.23;3.30;;;25.90;51.60;;;;;;5070063;28;20198;-47
2022/01/18 03:28:27;;;;;;;9.32;2.67;;;26.00;51.70;;;;;;5069012;28;20262;-41
2022/01/18 03:30:59;;;;;;;8.68;2.65;;;26.00;51.70;;;;;;5069193;28;20198;-49
2022/01/18 03:33:30;;;;;;;6.68;2.38;;;25.90;51.60;;;;;;5067757;28;20306;-48
2022/01/18 03:36:01;;;;;;;11.98;2.70;;;26.00;51.60;;;;;;5052971;22;20228;-46
2022/01/18 03:38:33;;;;;;;7.22;2.55;;;26.00;51.60;;;;;;5029566;28;20227;-51
2022/01/18 03:41:05;;;;;;;12.85;2.63;;;26.00;51.50;;;;;;5029709;28;20695;-48
2022/01/18 03:43:41;;;;;;;10.32;3.05;;;26.00;51.50;;;;;;5028410;28;20321;-50
2022/01/18 03:46:11;;;;;;;10.63;2.72;;;26.10;51.40;;;;;;5028746;28;20199;-44
2022/01/18 03:48:49;;;;;;;8.57;2.88;;;26.00;51.30;;;;;;5029763;28;20235;-44
2022/01/18 03:51:20;;;;;;;8.63;2.42;;;26.10;51.20;;;;;;5029464;28;20283;-47
2022/01/18 03:53:52;;;;;;;12.98;3.75;;;26.10;51.20;;;;;;5029073;28;20303;-49
2022/01/18 03:56:23;;;;;;;17.52;4.45;;;26.10;51.20;;;;;;5029011;28;20279;-44
2022/01/18 03:58:53;;;;;;;17.65;4.53;;;26.10;51.20;;;;;;5029099;28;20518;-42
2022/01/18 04:01:24;;;;;;;20.40;3.80;;;26.10;51.10;;;;;;5028012;28;20283;-53
2022/01/18 04:03:54;;;;;;;9.52;2.83;;;26.10;51.10;;;;;;5028736;28;20310;-47
2022/01/18 04:06:25;;;;;;;12.45;2.92;;;26.10;51.10;;;;;;5028754;28;20296;-51
2022/01/18 04:08:57;;;;;;;9.65;3.03;;;26.20;51.10;;;;;;5028066;28;20626;-46
2022/01/18 04:11:27;;;;;;;13.50;3.13;;;26.20;51.00;;;;;;5027637;28;21602;-49
2022/01/18 04:13:58;;;;;;;10.98;2.80;;;26.20;51.00;;;;;;5027619;28;20306;-47
2022/01/18 04:16:28;;;;;;;11.80;2.72;;;26.20;50.90;;;;;;5027783;28;20209;-47
2022/01/18 04:19:21;;;;;;;11.10;2.88;;;26.20;50.80;;;;;;5027940;28;20850;-43
2022/01/18 04:27:24;;;;;;;8.68;2.90;;;26.30;50.80;;;;;;5027035;28;20207;-47
2022/01/18 04:29:55;;;;;;;9.35;2.72;;;26.30;50.70;;;;;;5027403;28;20196;-46
2022/01/18 04:32:25;;;;;;;11.45;2.22;;;26.30;50.60;;;;;;5027987;28;20337;-42
2022/01/18 04:34:55;;;;;;;8.88;2.28;;;26.30;50.70;;;;;;5039917;22;20307;-38
2022/01/18 04:37:26;;;;;;;9.98;3.58;;;26.30;50.40;;;;;;5028994;28;20542;-37
2022/01/18 04:39:59;;;;;;;9.48;3.03;;;26.30;50.10;;;;;;5028770;28;20307;-36
2022/01/18 04:42:41;;;;;;;11.70;2.85;;;26.20;49.90;;;;;;5027369;28;20319;-36
2022/01/18 04:50:48;;;;;;;12.05;3.22;;;26.00;50.00;;;;;;5027519;28;20250;-45
2022/01/18 04:53:18;;;;;;;9.30;2.50;;;25.90;50.20;;;;;;5027205;28;20301;-48
2022/01/18 04:55:54;;;;;;;10.90;2.95;;;25.80;50.40;;;;;;5028063;28;20283;-49
2022/01/18 04:58:26;;;;;;;9.30;2.65;;;25.80;50.60;;;;;;5026885;28;20212;-42
2022/01/18 05:00:58;;;;;;;9.88;2.47;;;25.80;50.80;;;;;;5027515;28;20905;-42
2022/01/18 05:03:29;;;;;;;10.25;2.50;;;25.80;50.90;;;;;;5027556;28;20212;-42
2022/01/18 05:06:06;;;;;;;9.07;2.70;;;25.80;50.90;;;;;;5027594;28;20311;-45
2022/01/18 05:08:37;;;;;;;9.43;2.60;;;25.80;50.90;;;;;;5027724;28;20215;-45
2022/01/18 05:11:12;;;;;;;7.55;2.08;;;25.80;50.90;;;;;;5027578;28;20204;-41
2022/01/18 05:14:00;;;;;;;8.32;2.45;;;25.90;50.90;;;;;;5027288;28;20211;-42
2022/01/18 05:16:47;;;;;;;8.38;2.53;;;25.90;51.00;;;;;;5026043;28;20236;-50
2022/01/18 05:19:25;;;;;;;8.18;2.25;;;26.00;51.00;;;;;;5026228;28;20251;-49
2022/01/18 05:24:54;;;;;;;7.82;2.65;;;26.00;51.00;;;;;;4966452;28;20337;-47
2022/01/18 05:27:26;;;;;;;6.97;2.13;;;26.10;50.90;;;;;;5013591;28;20300;-47
2022/01/18 05:29:56;;;;;;;6.93;2.25;;;26.10;50.90;;;;;;5027853;28;20284;-42
2022/01/18 05:32:27;;;;;;;7.50;2.45;;;26.10;51.40;;;;;;5027174;28;20811;-45
2022/01/18 05:34:57;;;;;;;6.82;2.30;;;26.10;50.80;;;;;;5028005;28;20307;-49
2022/01/18 05:37:28;;;;;;;6.30;1.90;;;26.10;50.80;;;;;;5026145;28;20279;-54
2022/01/18 05:39:58;;;;;;;5.22;2.10;;;26.20;50.80;;;;;;5025619;28;20310;-49
2022/01/18 05:42:30;;;;;;;8.05;2.22;;;26.20;50.70;;;;;;5027267;28;20280;-43
2022/01/18 05:45:01;;;;;;;8.75;2.83;;;26.20;50.80;;;;;;5027192;28;20311;-43
2022/01/18 05:47:31;;;;;;;5.75;2.15;;;26.20;50.70;;;;;;5026679;28;20287;-43
2022/01/18 05:50:02;;;;;;;9.52;2.60;;;26.30;50.70;;;;;;5027393;28;20299;-43
2022/01/18 05:52:32;;;;;;;7.80;2.55;;;26.30;50.70;;;;;;5026578;28;20679;-44
2022/01/18 05:55:03;;;;;;;6.57;2.33;;;26.30;50.70;;;;;;5026814;28;20311;-42
2022/01/18 05:57:36;;;;;;;9.52;2.58;;;26.30;50.60;;;;;;5028017;28;20284;-43
2022/01/18 06:00:10;;;;;;;6.38;2.28;;;26.40;50.70;;;;;;5027631;28;20311;-45
2022/01/18 06:02:48;;;;;;;7.10;2.22;;;26.40;50.70;;;;;;5027915;28;20195;-43
2022/01/18 06:08:05;;;;;;;8.05;2.45;;;26.40;50.50;;;;;;5026246;28;20211;-44
2022/01/18 06:10:36;;;;;;;8.23;2.38;;;26.40;50.50;;;;;;5026449;28;20231;-52
2022/01/18 06:13:08;;;;;;;6.97;2.40;;;26.40;50.50;;;;;;5026349;28;20293;-44
2022/01/18 06:15:39;;;;;;;7.55;2.30;;;26.40;50.50;;;;;;5027016;28;20230;-45
2022/01/18 06:18:10;;;;;;;5.85;2.15;;;26.40;50.40;;;;;;5026788;28;20291;-46
2022/01/18 06:20:43;;;;;;;7.78;2.60;;;26.40;50.40;;;;;;5025486;28;20227;-46
2022/01/18 06:23:14;;;;;;;6.55;2.50;;;26.40;50.40;;;;;;5026667;28;20204;-45
2022/01/18 06:25:44;;;;;;;7.75;2.30;;;26.40;50.40;;;;;;5026694;28;20199;-49
2022/01/18 06:28:16;;;;;;;7.28;2.38;;;26.50;50.50;;;;;;5025762;28;20283;-45
2022/01/18 06:30:47;;;;;;;6.15;2.25;;;26.50;50.50;;;;;;5029912;28;20290;-42
2022/01/18 06:33:17;;;;;;;7.53;2.80;;;26.50;50.40;;;;;;5029834;28;20307;-44
2022/01/18 06:35:48;;;;;;;10.50;2.90;;;26.50;50.50;;;;;;5031597;28;20740;-51
2022/01/18 06:38:18;;;;;;;5.43;2.00;;;26.50;50.50;;;;;;5030285;28;20563;-43
2022/01/18 06:40:49;;;;;;;7.18;2.20;;;26.50;50.40;;;;;;5033774;28;20305;-43
2022/01/18 06:43:22;;;;;;;7.88;2.20;;;26.50;50.40;;;;;;5036238;28;20219;-42
2022/01/18 06:45:52;;;;;;;6.88;2.53;;;26.50;50.30;;;;;;5031113;28;20283;-44
2022/01/18 06:48:22;;;;;;;7.00;2.35;;;26.50;50.30;;;;;;5031092;28;20200;-42
2022/01/18 06:51:05;;;;;;;5.68;2.30;;;26.50;50.30;;;;;;5031497;28;20202;-42
2022/01/18 06:53:43;;;;;;;8.98;2.58;;;26.50;50.30;;;;;;5031160;28;20739;-43
2022/01/18 06:56:14;;;;;;;14.65;5.35;;;26.50;50.30;;;;;;5030704;28;20303;-47
2022/01/18 06:58:47;;;;;;;8.70;3.95;;;26.50;50.30;;;;;;5030057;28;20279;-48
2022/01/18 07:01:18;;;;;;;11.30;4.05;;;26.50;50.30;;;;;;5030581;28;20200;-44
2022/01/18 07:03:49;;;;;;;12.77;5.30;;;26.50;50.90;;;;;;5029618;28;20730;-44
2022/01/18 07:06:20;;;;;;;9.60;4.80;;;26.50;50.30;;;;;;5030424;28;20283;-49
2022/01/18 07:08:50;;;;;;;10.23;4.28;;;26.50;50.30;;;;;;5031860;28;20719;-43
2022/01/18 07:11:21;;;;;;;11.60;4.47;;;26.50;50.30;;;;;;5015599;28;20259;-48
2022/01/18 07:13:54;;;;;;;12.55;4.78;;;26.50;50.30;;;;;;5030172;28;20303;-42
2022/01/18 07:16:24;;;;;;;13.02;4.95;;;26.50;50.30;;;;;;5028791;28;20295;-50
2022/01/18 07:18:55;;;;;;;9.77;3.58;;;26.50;50.30;;;;;;5030440;28;20296;-43
2022/01/18 07:21:26;;;;;;;12.13;4.50;;;26.50;50.30;;;;;;5027151;28;20285;-44
2022/01/18 07:24:03;;;;;;;11.13;4.18;;;26.50;50.30;;;;;;5017451;28;20644;-44
2022/01/18 07:26:34;;;;;;;11.00;4.13;;;26.50;50.30;;;;;;5031287;28;20199;-44
2022/01/18 07:29:06;;;;;;;10.90;4.13;;;26.50;50.30;;;;;;5013949;28;20303;-41
2022/01/18 07:31:37;;;;;;;10.18;3.85;;;26.50;50.40;;;;;;5030796;28;20287;-43
2022/01/18 07:34:07;;;;;;;12.20;4.38;;;26.50;50.30;;;;;;5030393;28;20815;-41
2022/01/18 07:36:39;;;;;;;8.63;3.72;;;26.50;50.30;;;;;;5030915;28;20287;-47
2022/01/18 07:39:10;;;;;;;8.63;3.67;;;26.50;50.30;;;;;;5030369;28;20650;-42
2022/01/18 07:41:40;;;;;;;10.63;3.72;;;26.50;50.30;;;;;;5030382;28;20228;-45
2022/01/18 07:44:13;;;;;;;8.38;3.70;;;26.50;50.30;;;;;;5014190;28;20307;-43
2022/01/18 07:46:43;;;;;;;9.88;3.90;;;26.50;50.30;;;;;;5030839;28;20271;-49
2022/01/18 07:49:14;;;;;;;7.60;3.20;;;26.50;50.40;;;;;;5029295;28;20291;-43
2022/01/18 07:51:44;;;;;;;6.97;3.50;;;26.40;50.30;;;;;;5021848;28;20205;-45
2022/01/18 07:54:14;;;;;;;9.23;3.63;;;26.40;50.40;;;;;;5022772;28;20284;-45
2022/01/18 07:56:45;;;;;;;10.50;3.67;;;26.40;50.50;;;;;;5028363;28;20203;-45
2022/01/18 07:59:17;;;;;;;7.22;3.47;;;26.40;50.50;;;;;;5015329;28;20760;-46
2022/01/18 08:01:48;;;;;;;8.82;3.53;;;26.40;50.60;;;;;;5030487;28;20283;-49
2022/01/18 08:04:18;;;;;;;10.70;3.55;;;26.30;50.60;;;;;;5030200;28;20299;-41
2022/01/18 08:06:48;;;;;;;10.85;3.28;;;26.30;50.60;;;;;;5029817;28;20286;-43
2022/01/18 08:09:20;;;;;;;8.80;3.20;;;26.30;50.70;;;;;;5029305;28;20204;-43
2022/01/18 08:11:52;;;;;;;7.63;3.22;;;26.20;50.60;;;;;;5021411;28;20199;-48
2022/01/18 08:14:26;;;;;;;11.52;3.42;;;26.20;50.70;;;;;;5027022;28;20252;-52
2022/01/18 08:17:02;;;;;;;10.30;3.47;;;26.20;50.70;;;;;;5028513;28;20305;-47
2022/01/18 08:19:33;;;;;;;9.55;3.15;;;26.20;50.70;;;;;;5028396;28;20224;-49
2022/01/18 08:22:04;;;;;;;9.52;3.25;;;26.20;50.80;;;;;;5029381;28;20752;-43
2022/01/18 08:24:34;;;;;;;12.25;3.58;;;26.10;50.80;;;;;;5028470;28;20307;-44
2022/01/18 08:27:05;;;;;;;9.73;3.60;;;26.10;50.80;;;;;;5028089;28;20282;-45
2022/01/18 08:29:38;;;;;;;12.32;3.75;;;26.10;50.90;;;;;;5027267;28;20319;-51
2022/01/18 08:32:10;;;;;;;8.25;3.17;;;26.10;51.00;;;;;;5029076;28;20279;-44
2022/01/18 08:34:40;;;;;;;9.52;3.22;;;26.10;51.00;;;;;;5029123;28;20306;-42
2022/01/18 08:37:11;;;;;;;13.15;3.85;;;26.00;51.00;;;;;;5025408;28;20291;-51
2022/01/18 08:39:41;;;;;;;9.70;3.58;;;26.00;51.00;;;;;;5026908;28;20322;-47
2022/01/18 08:42:13;;;;;;;10.15;3.97;;;26.00;51.00;;;;;;5026856;28;20202;-49
2022/01/18 08:44:45;;;;;;;11.52;3.80;;;26.00;51.10;;;;;;5025671;28;20211;-50
2022/01/18 08:47:17;;;;;;;9.07;3.17;;;26.00;51.00;;;;;;5028027;28;20243;-50
2022/01/18 08:49:48;;;;;;;8.50;3.42;;;25.90;51.00;;;;;;5025848;28;20728;-43
2022/01/18 08:52:18;;;;;;;9.85;3.80;;;25.90;51.10;;;;;;5026991;28;20232;-42
2022/01/18 08:54:49;;;;;;;11.65;3.95;;;25.90;51.10;;;;;;5024460;28;20319;-52
2022/01/18 08:57:19;;;;;;;8.55;3.00;;;25.90;51.20;;;;;;5025858;28;20293;-45
2022/01/18 08:59:53;;;;;;;9.30;3.00;;;25.80;51.10;;;;;;5025674;28;20766;-44
2022/01/18 09:02:24;;;;;;;7.90;3.45;;;25.80;51.20;;;;;;5024816;28;20200;-42
2022/01/18 09:04:54;;;;;;;10.30;3.45;;;25.80;51.20;;;;;;5026157;28;20302;-46
2022/01/18 09:07:26;;;;;;;10.35;3.60;;;25.80;51.20;;;;;;5026518;28;20686;-42
2022/01/18 09:10:03;;;;;;;9.45;3.42;;;25.80;51.20;;;;;;5025858;28;20204;-47
2022/01/18 09:12:34;;;;;;;9.95;3.28;;;25.80;51.30;;;;;;5027015;28;20208;-44
2022/01/18 09:15:08;;;;;;;10.10;3.42;;;25.70;51.30;;;;;;5026587;28;20307;-46
2022/01/18 09:17:39;;;;;;;7.55;3.20;;;25.70;51.40;;;;;;5025951;28;20295;-41
2022/01/18 09:20:12;;;;;;;10.65;3.50;;;25.70;51.40;;;;;;5025654;28;20654;-54
2022/01/18 09:22:48;;;;;;;8.25;3.17;;;25.70;51.40;;;;;;5025102;28;20289;-43
2022/01/18 09:25:21;;;;;;;11.13;3.55;;;25.60;51.40;;;;;;5025754;28;20219;-41
2022/01/18 09:27:53;;;;;;;8.48;3.60;;;25.60;51.40;;;;;;5026576;28;20743;-45
2022/01/18 09:30:26;;;;;;;7.53;3.00;;;25.60;51.50;;;;;;5025364;28;20284;-46
2022/01/18 09:32:58;;;;;;;11.10;4.20;;;25.60;51.50;;;;;;5026025;28;20204;-44
2022/01/18 09:35:29;;;;;;;6.55;3.15;;;25.60;51.60;;;;;;5026832;28;20291;-42
2022/01/18 09:37:59;;;;;;;8.13;3.75;;;25.50;51.60;;;;;;5025241;28;20296;-45
2022/01/18 09:40:33;;;;;;;7.13;3.22;;;25.50;51.60;;;;;;5026352;28;20323;-44
2022/01/18 09:43:09;;;;;;;7.72;3.30;;;25.50;51.70;;;;;;5026592;28;20196;-43
2022/01/18 09:45:42;;;;;;;8.45;3.50;;;25.50;51.70;;;;;;5025931;28;20204;-43
2022/01/18 09:48:14;;;;;;;7.82;3.42;;;25.50;51.90;;;;;;5026575;28;20284;-45
2022/01/18 09:50:46;;;;;;;7.93;3.55;;;25.50;51.90;;;;;;5024371;28;20279;-41
2022/01/18 09:53:17;;;;;;;8.15;3.55;;;25.40;51.90;;;;;;5025452;28;20285;-42
2022/01/18 09:55:49;;;;;;;11.27;3.85;;;25.40;52.00;;;;;;5026554;28;20887;-43
2022/01/18 09:58:19;;;;;;;9.07;3.88;;;25.40;52.00;;;;;;5024412;28;20196;-41
2022/01/18 10:00:52;;;;;;;7.88;3.40;;;25.40;52.10;;;;;;5025745;28;20236;-43
2022/01/18 10:03:33;;;;;;;7.82;3.22;;;25.30;52.00;;;;;;5025465;28;20215;-47
2022/01/18 10:06:05;;;;;;;8.13;3.15;;;25.30;52.00;;;;;;5024059;28;20755;-51
2022/01/18 10:08:35;;;;;;;7.15;3.20;;;25.30;52.10;;;;;;5025269;28;20210;-41
2022/01/18 10:11:14;;;;;;;8.13;2.95;;;25.30;52.10;;;;;;5025270;28;20283;-44
2022/01/18 10:13:45;;;;;;;7.00;2.92;;;25.30;52.10;;;;;;5023416;28;20220;-45
2022/01/18 10:16:22;;;;;;;8.73;3.03;;;25.20;52.00;;;;;;5025643;28;20286;-53
2022/01/18 10:19:01;;;;;;;9.60;3.30;;;25.20;52.10;;;;;;5025038;28;20194;-50
2022/01/18 10:21:34;;;;;;;9.52;3.00;;;25.20;52.10;;;;;;5024871;28;20223;-42
2022/01/18 10:24:17;;;;;;;7.80;3.20;;;25.20;52.10;;;;;;5026814;28;20711;-41
2022/01/18 10:26:48;;;;;;;8.20;2.78;;;25.10;52.10;;;;;;5024225;28;20656;-43
2022/01/18 10:29:21;;;;;;;6.20;3.08;;;25.10;52.10;;;;;;5025864;28;20215;-43
2022/01/18 10:32:09;;;;;;;7.40;2.90;;;25.10;52.10;;;;;;5025931;28;20203;-43
2022/01/18 10:35:04;;;;;;;5.75;2.60;;;25.10;52.10;;;;;;5024119;28;20689;-41
2022/01/18 10:37:35;;;;;;;7.45;2.95;;;25.10;52.10;;;;;;5023953;28;20211;-44
2022/01/18 10:43:07;;;;;;;6.47;3.05;;;25.00;52.10;;;;;;5024313;28;20192;-41
2022/01/18 10:45:39;;;;;;;4.90;2.63;;;25.00;52.10;;;;;;5023980;28;20201;-41
2022/01/18 10:48:18;;;;;;;7.00;2.60;;;25.00;52.10;;;;;;5026787;28;20250;-51
2022/01/18 10:50:51;;;;;;;5.18;2.63;;;24.90;52.10;;;;;;5023208;28;20283;-41
2022/01/18 10:53:23;;;;;;;5.03;2.75;;;24.90;52.00;;;;;;5025350;28;20307;-43
2022/01/18 10:56:13;;;;;;;5.55;3.03;;;24.90;52.00;;;;;;5025207;28;20358;-48
2022/01/18 10:58:52;;;;;;;5.13;2.50;;;24.90;52.00;;;;;;5024481;28;20291;-47
2022/01/18 11:01:23;;;;;;;8.88;3.17;;;24.90;52.00;;;;;;5026200;28;20762;-49
2022/01/18 11:04:13;;;;;;;5.65;2.53;;;24.90;52.00;;;;;;5028527;28;20303;-44
2022/01/18 11:06:45;;;;;;;4.43;2.38;;;24.90;52.10;;;;;;5027943;28;20201;-49
2022/01/18 11:09:18;;;;;;;5.95;2.58;;;24.80;52.00;;;;;;5028248;28;20699;-48
2022/01/18 11:11:49;;;;;;;6.18;2.70;;;24.80;52.00;;;;;;5027163;28;20200;-43
2022/01/18 11:14:22;;;;;;;3.72;2.25;;;24.80;52.10;;;;;;5026425;28;20299;-41
2022/01/18 11:16:56;;;;;;;5.45;2.30;;;24.70;52.10;;;;;;5029444;28;20201;-44
2022/01/18 11:19:33;;;;;;;5.20;2.50;;;24.70;52.10;;;;;;5030748;28;20279;-47
2022/01/18 11:22:06;;;;;;;4.53;2.38;;;24.70;52.10;;;;;;5030637;28;20231;-41
2022/01/18 11:24:39;;;;;;;5.50;2.40;;;24.70;52.10;;;;;;5031824;28;20581;-43
2022/01/18 11:27:13;;;;;;;4.03;2.42;;;24.60;52.10;;;;;;5030001;28;20630;-43
2022/01/18 11:29:44;;;;;;;5.90;2.50;;;24.60;52.10;;;;;;5030304;28;20196;-41
2022/01/18 11:32:16;;;;;;;2.92;1.90;;;24.60;52.00;;;;;;5029411;28;20992;-46
2022/01/18 11:35:05;;;;;;;4.00;1.90;;;24.60;52.00;;;;;;5028848;28;21031;-46
2022/01/18 11:37:44;;;;;;;3.05;1.70;;;24.60;52.10;;;;;;5028494;28;20227;-42
2022/01/18 11:40:16;;;;;;;5.45;2.22;;;24.50;52.00;;;;;;5029538;28;20286;-45
2022/01/18 11:42:52;;;;;;;3.53;2.15;;;24.50;52.00;;;;;;5028253;28;20727;-43
2022/01/18 11:45:40;;;;;;;5.10;2.20;;;24.50;52.00;;;;;;5013914;28;20303;-53
2022/01/18 11:48:23;;;;;;;4.72;2.20;;;24.50;52.10;;;;;;5030427;28;20283;-41
2022/01/18 11:51:08;;;;;;;3.95;2.22;;;24.50;52.10;;;;;;5028104;28;20196;-45
2022/01/18 11:53:46;;;;;;;5.35;2.38;;;24.50;52.10;;;;;;5031610;28;20251;-48
2022/01/18 11:56:41;;;;;;;5.68;2.25;;;24.40;52.00;;;;;;5029855;28;20202;-48
2022/01/18 11:59:17;;;;;;;2.20;1.52;;;24.40;52.10;;;;;;5024896;28;20224;-43
2022/01/18 12:01:53;;;;;;;4.97;2.30;;;24.40;52.20;;;;;;5030745;28;20238;-41
2022/01/18 12:05:01;;;;;;;4.93;1.92;;;24.30;52.10;;;;;;5041435;28;20293;-41
2022/01/18 12:07:55;;;;;;;4.55;2.03;;;24.30;52.10;;;;;;5027848;28;20576;-50
2022/01/18 12:10:49;;;;;;;3.40;2.05;;;24.30;52.20;;;;;;5028705;28;20287;-42
2022/01/18 12:13:47;;;;;;;3.95;1.95;;;24.30;52.20;;;;;;5030004;28;20246;-43
2022/01/18 12:16:29;;;;;;;3.85;2.22;;;24.20;52.10;;;;;;5026433;28;20287;-44
2022/01/18 12:19:05;;;;;;;4.80;2.38;;;24.20;52.10;;;;;;5024314;28;20287;-41
2022/01/18 12:21:37;;;;;;;3.58;1.98;;;24.20;52.10;;;;;;5020237;28;20227;-44
2022/01/18 12:24:24;;;;;;;3.75;1.90;;;24.20;52.10;;;;;;5029232;28;20300;-43
2022/01/18 12:27:03;;;;;;;3.80;2.00;;;24.20;52.10;;;;;;5029712;28;20643;-41
2022/01/18 12:29:49;;;;;;;3.50;1.83;;;24.10;52.10;;;;;;5030318;28;20196;-42
2022/01/18 12:32:50;;;;;;;2.92;1.80;;;24.20;52.20;;;;;;5029573;28;20767;-42
2022/01/18 12:35:26;;;;;;;4.80;1.98;;;24.10;52.20;;;;;;5028638;28;20219;-42
2022/01/18 12:37:57;;;;;;;3.65;2.00;;;24.10;52.10;;;;;;5030517;28;20706;-48
2022/01/18 12:40:37;;;;;;;6.25;2.20;;;24.10;52.20;;;;;;5029681;28;20615;-42
2022/01/18 12:46:01;;;;;;;3.95;1.85;;;24.00;52.20;;;;;;5016252;28;20208;-41
2022/01/18 12:48:36;;;;;;;3.53;1.90;;;24.00;52.20;;;;;;5027586;28;20339;-41
2022/01/18 12:51:09;;;;;;;3.58;1.80;;;24.00;52.30;;;;;;5028563;28;20196;-41
2022/01/18 12:53:39;;;;;;;5.32;2.05;;;23.90;52.30;;;;;;5029926;28;20212;-41
2022/01/18 12:56:12;;;;;;;5.10;2.25;;;24.00;52.30;;;;;;5028759;28;20230;-43
2022/01/18 12:58:48;;;;;;;4.45;2.25;;;23.90;52.30;;;;;;5027984;28;20196;-43
2022/01/18 13:01:24;;;;;;;4.43;2.00;;;23.90;52.30;;;;;;5028674;28;20224;-50
2022/01/18 13:03:56;;;;;;;3.80;1.77;;;23.80;52.30;;;;;;5026604;28;20223;-43
2022/01/18 13:06:27;;;;;;;4.20;1.88;;;23.80;52.20;;;;;;5029788;28;21471;-45
2022/01/18 13:08:59;;;;;;;3.20;1.92;;;23.80;52.20;;;;;;5029359;28;20250;-41
2022/01/18 13:11:34;;;;;;;2.95;1.80;;;23.80;52.20;;;;;;5027268;28;20196;-44
2022/01/18 13:14:08;;;;;;;2.70;1.60;;;23.80;52.30;;;;;;5013134;28;20215;-41
2022/01/18 13:25:09;;;;;;;3.72;2.20;;;23.80;52.30;;;;;;4988920;28;20595;-41
2022/01/18 13:27:45;;;;;;;3.70;1.90;;;23.70;52.20;;;;;;5027127;28;20193;-41
2022/01/18 13:30:21;;;;;;;3.08;2.00;;;23.70;52.30;;;;;;5013567;28;20257;-41
2022/01/18 13:32:52;;;;;;;2.42;1.55;;;23.70;52.30;;;;;;5028334;28;20196;-44
2022/01/18 13:35:24;;;;;;;3.35;2.00;;;23.70;52.30;;;;;;5028421;28;20231;-42
2022/01/18 13:37:58;;;;;;;3.83;1.90;;;23.70;52.30;;;;;;5030375;28;20814;-43
2022/01/18 13:40:30;;;;;;;2.85;2.10;;;23.60;52.30;;;;;;5027399;28;20195;-50
2022/01/18 13:43:08;;;;;;;3.22;2.08;;;23.60;52.30;;;;;;5027688;28;20216;-51
2022/01/18 13:45:43;;;;;;;3.42;1.70;;;23.60;52.30;;;;;;5029092;28;20204;-42
2022/01/18 13:48:14;;;;;;;2.78;1.67;;;23.50;52.30;;;;;;5026865;28;20231;-49
2022/01/18 13:50:50;;;;;;;3.13;1.67;;;23.60;52.30;;;;;;5028279;28;20279;-49
2022/01/18 13:53:22;;;;;;;3.55;1.63;;;23.50;52.30;;;;;;5027326;28;21375;-41
2022/01/18 13:55:54;;;;;;;3.83;2.10;;;23.50;52.30;;;;;;5026564;28;20304;-41
2022/01/18 13:58:33;;;;;;;2.88;1.60;;;23.50;52.30;;;;;;5026929;28;20756;-42
2022/01/18 14:01:14;;;;;;;1.73;1.40;;;23.50;52.30;;;;;;5055188;22;20308;-42
2022/01/18 14:03:45;;;;;;;3.65;1.80;;;23.40;52.20;;;;;;5052780;28;20221;-49
2022/01/18 14:06:17;;;;;;;2.38;1.70;;;23.40;52.20;;;;;;5068152;28;20195;-44
2022/01/18 14:08:50;;;;;;;2.85;1.48;;;23.40;52.30;;;;;;5068264;28;20251;-42
2022/01/18 14:11:23;;;;;;;2.85;1.98;;;23.40;52.20;;;;;;5060957;28;20285;-51
2022/01/18 14:13:56;;;;;;;3.53;1.80;;;23.40;52.20;;;;;;5067999;28;20249;-40
2022/01/18 14:16:29;;;;;;;2.30;1.55;;;23.40;52.30;;;;;;5066851;28;20277;-42